sensor_id;sensor_type;location;lat;lon;timestamp;temperature;humidity
6379;DHT22;3222;48.858;10.128;2023-01-15T00:01:48;7.40;99.90
6379;DHT22;3222;48.858;10.128;2023-01-15T00:04:14;7.40;99.90
6379;DHT22;3222;48.858;10.128;2023-01-15T00:06:41;7.40;99.90
6379;DHT22;3222;48.858;10.128;2023-01-15T00:09:08;7.50;99.90
6379;DHT22;3222;48.858;10.128;2023-01-15T00:11:36;7.50;99.90
6379;DHT22;3222;48.858;10.128;2023-01-15T00:14:02;7.40;99.90
6379;DHT22;3222;48.858;10.128;2023-01-15T00:16:27;7.50;99.90
6379;DHT22;3222;48.858;10.128;2023-01-15T00:18:57;7.50;99.90
6379;DHT22;3222;48.858;10.128;2023-01-15T00:21:24;7.50;99.90
6379;DHT22;3222;48.858;10.128;2023-01-15T00:23:50;7.50;99.90
6379;DHT22;3222;48.858;10.128;2023-01-15T00:26:35;7.50;99.90
6379;DHT22;3222;48.858;10.128;2023-01-15T00:29:21;7.40;99.90
6379;DHT22;3222;48.858;10.128;2023-01-15T00:31:53;7.50;99.90
6379;DHT22;3222;48.858;10.128;2023-01-15T00:34:19;7.50;99.90
6379;DHT22;3222;48.858;10.128;2023-01-15T00:36:45;7.50;99.90
6379;DHT22;3222;48.858;10.128;2023-01-15T00:39:11;7.50;99.90
6379;DHT22;3222;48.858;10.128;2023-01-15T00:41:36;7.50;99.90
6379;DHT22;3222;48.858;10.128;2023-01-15T00:44:02;7.50;99.90
6379;DHT22;3222;48.858;10.128;2023-01-15T00:46:28;7.60;99.90
6379;DHT22;3222;48.858;10.128;2023-01-15T00:48:53;7.60;99.90
6379;DHT22;3222;48.858;10.128;2023-01-15T00:51:21;7.60;99.90
6379;DHT22;3222;48.858;10.128;2023-01-15T00:53:46;7.50;99.90
6379;DHT22;3222;48.858;10.128;2023-01-15T00:56:12;7.60;99.90
6379;DHT22;3222;48.858;10.128;2023-01-15T00:58:37;7.60;99.90
6379;DHT22;3222;48.858;10.128;2023-01-15T01:01:03;7.60;99.90
6379;DHT22;3222;48.858;10.128;2023-01-15T01:03:29;7.60;99.90
6379;DHT22;3222;48.858;10.128;2023-01-15T01:06:01;7.70;99.90
6379;DHT22;3222;48.858;10.128;2023-01-15T01:08:28;7.70;99.90
6379;DHT22;3222;48.858;10.128;2023-01-15T01:11:06;7.70;99.90
6379;DHT22;3222;48.858;10.128;2023-01-15T01:13:33;7.70;99.90
6379;DHT22;3222;48.858;10.128;2023-01-15T01:15:59;7.80;99.90
6379;DHT22;3222;48.858;10.128;2023-01-15T01:18:25;7.80;99.90
6379;DHT22;3222;48.858;10.128;2023-01-15T01:20:50;7.70;99.90
6379;DHT22;3222;48.858;10.128;2023-01-15T01:23:16;7.70;99.90
6379;DHT22;3222;48.858;10.128;2023-01-15T01:25:42;7.70;99.90
6379;DHT22;3222;48.858;10.128;2023-01-15T01:28:08;7.80;99.90
6379;DHT22;3222;48.858;10.128;2023-01-15T01:30:33;7.80;99.90
6379;DHT22;3222;48.858;10.128;2023-01-15T01:32:59;7.80;99.90
6379;DHT22;3222;48.858;10.128;2023-01-15T01:35:25;7.80;99.90
6379;DHT22;3222;48.858;10.128;2023-01-15T01:37:51;7.80;99.90
6379;DHT22;3222;48.858;10.128;2023-01-15T01:40:17;7.80;99.90
6379;DHT22;3222;48.858;10.128;2023-01-15T01:42:43;7.80;99.90
6379;DHT22;3222;48.858;10.128;2023-01-15T01:45:21;7.80;99.90
6379;DHT22;3222;48.858;10.128;2023-01-15T01:47:51;7.80;99.90
6379;DHT22;3222;48.858;10.128;2023-01-15T01:50:19;7.80;99.90
6379;DHT22;3222;48.858;10.128;2023-01-15T01:52:55;7.80;99.90
6379;DHT22;3222;48.858;10.128;2023-01-15T01:55:23;7.80;99.90
6379;DHT22;3222;48.858;10.128;2023-01-15T01:57:55;7.80;99.90
6379;DHT22;3222;48.858;10.128;2023-01-15T02:00:22;7.80;99.90
6379;DHT22;3222;48.858;10.128;2023-01-15T02:02:51;7.80;99.90
6379;DHT22;3222;48.858;10.128;2023-01-15T02:05:24;7.80;99.90
6379;DHT22;3222;48.858;10.128;2023-01-15T02:07:52;7.80;99.90
6379;DHT22;3222;48.858;10.128;2023-01-15T02:10:18;7.80;99.90
6379;DHT22;3222;48.858;10.128;2023-01-15T02:13:02;7.80;99.90
6379;DHT22;3222;48.858;10.128;2023-01-15T02:15:37;7.80;99.90
6379;DHT22;3222;48.858;10.128;2023-01-15T02:18:22;7.80;99.90
6379;DHT22;3222;48.858;10.128;2023-01-15T02:20:55;7.80;99.90
6379;DHT22;3222;48.858;10.128;2023-01-15T02:28:45;7.80;99.90
6379;DHT22;3222;48.858;10.128;2023-01-15T02:33:47;7.80;99.90
6379;DHT22;3222;48.858;10.128;2023-01-15T02:36:17;7.90;99.90
6379;DHT22;3222;48.858;10.128;2023-01-15T02:38:48;7.90;99.90
6379;DHT22;3222;48.858;10.128;2023-01-15T02:41:20;7.90;99.90
6379;DHT22;3222;48.858;10.128;2023-01-15T02:43:50;7.80;99.90
6379;DHT22;3222;48.858;10.128;2023-01-15T02:46:17;7.90;99.90
6379;DHT22;3222;48.858;10.128;2023-01-15T02:48:47;7.90;99.90
6379;DHT22;3222;48.858;10.128;2023-01-15T02:51:17;7.90;99.90
6379;DHT22;3222;48.858;10.128;2023-01-15T02:53:47;7.90;99.90
6379;DHT22;3222;48.858;10.128;2023-01-15T02:56:19;7.90;99.90
6379;DHT22;3222;48.858;10.128;2023-01-15T02:58:51;7.90;99.90
6379;DHT22;3222;48.858;10.128;2023-01-15T03:01:22;7.90;99.90
6379;DHT22;3222;48.858;10.128;2023-01-15T03:04:09;7.90;99.90
6379;DHT22;3222;48.858;10.128;2023-01-15T03:06:45;7.90;99.90
6379;DHT22;3222;48.858;10.128;2023-01-15T03:09:15;7.90;99.90
6379;DHT22;3222;48.858;10.128;2023-01-15T03:12:02;7.90;99.90
6379;DHT22;3222;48.858;10.128;2023-01-15T03:14:42;7.90;99.90
6379;DHT22;3222;48.858;10.128;2023-01-15T03:17:18;7.90;99.90
6379;DHT22;3222;48.858;10.128;2023-01-15T03:27:18;8.00;99.90
6379;DHT22;3222;48.858;10.128;2023-01-15T03:29:51;7.90;99.90
6379;DHT22;3222;48.858;10.128;2023-01-15T03:32:19;7.80;99.90
6379;DHT22;3222;48.858;10.128;2023-01-15T03:34:51;8.00;99.90
6379;DHT22;3222;48.858;10.128;2023-01-15T03:37:20;8.10;99.90
6379;DHT22;3222;48.858;10.128;2023-01-15T03:39:48;8.00;99.90
6379;DHT22;3222;48.858;10.128;2023-01-15T03:45:31;8.00;99.90
6379;DHT22;3222;48.858;10.128;2023-01-15T03:48:14;8.00;99.90
6379;DHT22;3222;48.858;10.128;2023-01-15T03:50:46;8.10;99.90
6379;DHT22;3222;48.858;10.128;2023-01-15T03:53:25;8.10;99.90
6379;DHT22;3222;48.858;10.128;2023-01-15T03:56:13;8.10;99.90
6379;DHT22;3222;48.858;10.128;2023-01-15T03:58:51;8.10;99.90
6379;DHT22;3222;48.858;10.128;2023-01-15T04:01:28;8.10;99.90
6379;DHT22;3222;48.858;10.128;2023-01-15T04:03:58;8.10;99.90
6379;DHT22;3222;48.858;10.128;2023-01-15T04:06:27;8.10;99.90
6379;DHT22;3222;48.858;10.128;2023-01-15T04:08:55;8.10;99.90
6379;DHT22;3222;48.858;10.128;2023-01-15T04:11:23;8.10;99.90
6379;DHT22;3222;48.858;10.128;2023-01-15T04:13:53;8.10;99.90
6379;DHT22;3222;48.858;10.128;2023-01-15T04:16:32;8.10;99.90
6379;DHT22;3222;48.858;10.128;2023-01-15T04:18:59;8.10;99.90
6379;DHT22;3222;48.858;10.128;2023-01-15T04:21:25;8.10;99.90
6379;DHT22;3222;48.858;10.128;2023-01-15T04:23:51;8.10;99.90
6379;DHT22;3222;48.858;10.128;2023-01-15T04:26:17;8.10;99.90
6379;DHT22;3222;48.858;10.128;2023-01-15T04:28:43;8.10;99.90
6379;DHT22;3222;48.858;10.128;2023-01-15T04:31:09;8.10;99.90
6379;DHT22;3222;48.858;10.128;2023-01-15T04:33:35;8.10;99.90
6379;DHT22;3222;48.858;10.128;2023-01-15T04:36:02;8.10;99.90
6379;DHT22;3222;48.858;10.128;2023-01-15T04:38:28;8.10;99.90
6379;DHT22;3222;48.858;10.128;2023-01-15T04:40:54;8.10;99.90
6379;DHT22;3222;48.858;10.128;2023-01-15T04:43:38;8.10;99.90
6379;DHT22;3222;48.858;10.128;2023-01-15T04:46:24;8.20;99.90
6379;DHT22;3222;48.858;10.128;2023-01-15T04:48:50;8.20;99.90
6379;DHT22;3222;48.858;10.128;2023-01-15T04:51:15;8.20;99.90
6379;DHT22;3222;48.858;10.128;2023-01-15T04:53:41;8.20;99.90
6379;DHT22;3222;48.858;10.128;2023-01-15T04:56:07;8.20;99.90
6379;DHT22;3222;48.858;10.128;2023-01-15T04:58:33;8.20;99.90
6379;DHT22;3222;48.858;10.128;2023-01-15T05:03:28;8.20;99.90
6379;DHT22;3222;48.858;10.128;2023-01-15T05:05:54;8.20;99.90
6379;DHT22;3222;48.858;10.128;2023-01-15T05:08:19;8.20;99.90
6379;DHT22;3222;48.858;10.128;2023-01-15T05:10:45;8.20;99.90
6379;DHT22;3222;48.858;10.128;2023-01-15T05:13:11;8.30;99.90
6379;DHT22;3222;48.858;10.128;2023-01-15T05:15:37;8.30;99.90
6379;DHT22;3222;48.858;10.128;2023-01-15T05:18:05;8.30;99.90
6379;DHT22;3222;48.858;10.128;2023-01-15T05:20:31;8.30;99.90
6379;DHT22;3222;48.858;10.128;2023-01-15T05:22:56;8.30;99.90
6379;DHT22;3222;48.858;10.128;2023-01-15T05:25:22;8.30;99.90
6379;DHT22;3222;48.858;10.128;2023-01-15T05:27:48;8.30;99.90
6379;DHT22;3222;48.858;10.128;2023-01-15T05:30:13;8.30;99.90
6379;DHT22;3222;48.858;10.128;2023-01-15T05:32:39;8.30;99.90
6379;DHT22;3222;48.858;10.128;2023-01-15T05:35:05;8.30;99.90
6379;DHT22;3222;48.858;10.128;2023-01-15T05:37:31;8.30;99.90
6379;DHT22;3222;48.858;10.128;2023-01-15T05:39:56;8.30;99.90
6379;DHT22;3222;48.858;10.128;2023-01-15T05:42:22;8.30;99.90
6379;DHT22;3222;48.858;10.128;2023-01-15T05:44:48;8.30;99.90
6379;DHT22;3222;48.858;10.128;2023-01-15T05:47:13;8.30;99.90
6379;DHT22;3222;48.858;10.128;2023-01-15T05:49:39;8.30;99.90
6379;DHT22;3222;48.858;10.128;2023-01-15T05:52:05;8.30;99.90
6379;DHT22;3222;48.858;10.128;2023-01-15T05:54:32;8.40;99.90
6379;DHT22;3222;48.858;10.128;2023-01-15T05:56:58;8.20;99.90
6379;DHT22;3222;48.858;10.128;2023-01-15T05:59:25;8.20;99.90
6379;DHT22;3222;48.858;10.128;2023-01-15T06:01:52;8.30;99.90
6379;DHT22;3222;48.858;10.128;2023-01-15T06:04:19;8.30;99.90
6379;DHT22;3222;48.858;10.128;2023-01-15T06:06:48;8.40;99.90
6379;DHT22;3222;48.858;10.128;2023-01-15T06:09:14;8.40;99.90
6379;DHT22;3222;48.858;10.128;2023-01-15T06:11:40;8.40;99.90
6379;DHT22;3222;48.858;10.128;2023-01-15T06:14:06;8.40;99.90
6379;DHT22;3222;48.858;10.128;2023-01-15T06:16:32;8.40;99.90
6379;DHT22;3222;48.858;10.128;2023-01-15T06:19:03;8.40;99.90
6379;DHT22;3222;48.858;10.128;2023-01-15T06:21:30;8.40;99.90
6379;DHT22;3222;48.858;10.128;2023-01-15T06:23:56;8.40;99.90
6379;DHT22;3222;48.858;10.128;2023-01-15T06:26:21;8.40;99.90
6379;DHT22;3222;48.858;10.128;2023-01-15T06:28:48;8.40;99.90
6379;DHT22;3222;48.858;10.128;2023-01-15T06:31:16;8.40;99.90
6379;DHT22;3222;48.858;10.128;2023-01-15T06:33:43;8.40;99.90
6379;DHT22;3222;48.858;10.128;2023-01-15T06:36:15;8.50;99.90
6379;DHT22;3222;48.858;10.128;2023-01-15T06:38:41;8.40;99.90
6379;DHT22;3222;48.858;10.128;2023-01-15T06:41:13;8.40;99.90
6379;DHT22;3222;48.858;10.128;2023-01-15T06:43:57;8.40;99.90
6379;DHT22;3222;48.858;10.128;2023-01-15T06:46:44;8.40;99.90
6379;DHT22;3222;48.858;10.128;2023-01-15T06:49:30;8.30;99.90
6379;DHT22;3222;48.858;10.128;2023-01-15T06:51:56;8.40;99.90
6379;DHT22;3222;48.858;10.128;2023-01-15T06:54:21;8.40;99.90
6379;DHT22;3222;48.858;10.128;2023-01-15T06:56:47;8.30;99.90
6379;DHT22;3222;48.858;10.128;2023-01-15T06:59:13;8.30;99.90
6379;DHT22;3222;48.858;10.128;2023-01-15T07:01:38;8.30;99.90
6379;DHT22;3222;48.858;10.128;2023-01-15T07:04:04;8.20;99.90
6379;DHT22;3222;48.858;10.128;2023-01-15T07:06:30;8.10;99.90
6379;DHT22;3222;48.858;10.128;2023-01-15T07:08:56;8.20;99.90
6379;DHT22;3222;48.858;10.128;2023-01-15T07:11:21;8.20;99.90
6379;DHT22;3222;48.858;10.128;2023-01-15T07:13:47;8.20;99.90
6379;DHT22;3222;48.858;10.128;2023-01-15T07:16:13;8.20;99.90
6379;DHT22;3222;48.858;10.128;2023-01-15T07:18:54;8.20;99.90
6379;DHT22;3222;48.858;10.128;2023-01-15T07:21:21;8.20;99.90
6379;DHT22;3222;48.858;10.128;2023-01-15T07:23:47;8.20;99.90
6379;DHT22;3222;48.858;10.128;2023-01-15T07:26:13;8.10;99.90
6379;DHT22;3222;48.858;10.128;2023-01-15T07:28:38;8.20;99.90
6379;DHT22;3222;48.858;10.128;2023-01-15T07:31:04;8.20;99.90
6379;DHT22;3222;48.858;10.128;2023-01-15T07:33:30;8.20;99.90
6379;DHT22;3222;48.858;10.128;2023-01-15T07:35:55;8.10;99.90
6379;DHT22;3222;48.858;10.128;2023-01-15T07:38:22;8.10;99.90
6379;DHT22;3222;48.858;10.128;2023-01-15T07:40:48;8.10;99.90
6379;DHT22;3222;48.858;10.128;2023-01-15T07:43:33;8.00;99.90
6379;DHT22;3222;48.858;10.128;2023-01-15T07:46:18;8.00;99.90
6379;DHT22;3222;48.858;10.128;2023-01-15T07:49:02;7.90;99.90
6379;DHT22;3222;48.858;10.128;2023-01-15T07:51:48;7.90;99.90
6379;DHT22;3222;48.858;10.128;2023-01-15T07:54:13;7.90;99.90
6379;DHT22;3222;48.858;10.128;2023-01-15T07:56:39;7.80;99.90
6379;DHT22;3222;48.858;10.128;2023-01-15T07:59:05;7.80;99.90
6379;DHT22;3222;48.858;10.128;2023-01-15T08:01:30;7.80;99.90
6379;DHT22;3222;48.858;10.128;2023-01-15T08:03:56;7.80;99.90
6379;DHT22;3222;48.858;10.128;2023-01-15T08:06:22;7.80;99.90
6379;DHT22;3222;48.858;10.128;2023-01-15T08:08:47;7.70;99.90
6379;DHT22;3222;48.858;10.128;2023-01-15T08:11:13;7.70;99.90
6379;DHT22;3222;48.858;10.128;2023-01-15T08:13:57;7.70;99.90
6379;DHT22;3222;48.858;10.128;2023-01-15T08:16:41;7.60;99.90
6379;DHT22;3222;48.858;10.128;2023-01-15T08:19:07;7.60;99.90
6379;DHT22;3222;48.858;10.128;2023-01-15T08:21:33;7.60;99.90
6379;DHT22;3222;48.858;10.128;2023-01-15T08:23:58;7.60;99.90
6379;DHT22;3222;48.858;10.128;2023-01-15T08:26:24;7.60;99.90
6379;DHT22;3222;48.858;10.128;2023-01-15T08:28:49;7.60;99.90
6379;DHT22;3222;48.858;10.128;2023-01-15T08:31:15;7.50;99.90
6379;DHT22;3222;48.858;10.128;2023-01-15T08:33:41;7.50;99.90
6379;DHT22;3222;48.858;10.128;2023-01-15T08:36:06;7.50;99.90
6379;DHT22;3222;48.858;10.128;2023-01-15T08:38:33;7.40;99.90
6379;DHT22;3222;48.858;10.128;2023-01-15T08:40:58;7.40;99.90
6379;DHT22;3222;48.858;10.128;2023-01-15T08:43:26;7.40;99.90
6379;DHT22;3222;48.858;10.128;2023-01-15T08:45:54;7.40;99.90
6379;DHT22;3222;48.858;10.128;2023-01-15T08:48:19;7.50;99.90
6379;DHT22;3222;48.858;10.128;2023-01-15T08:50:45;7.40;99.90
6379;DHT22;3222;48.858;10.128;2023-01-15T08:53:11;7.30;99.90
6379;DHT22;3222;48.858;10.128;2023-01-15T08:55:37;7.30;99.90
6379;DHT22;3222;48.858;10.128;2023-01-15T08:58:03;7.40;99.90
6379;DHT22;3222;48.858;10.128;2023-01-15T09:00:29;7.40;99.90
6379;DHT22;3222;48.858;10.128;2023-01-15T09:02:54;7.30;99.90
6379;DHT22;3222;48.858;10.128;2023-01-15T09:05:20;7.30;99.90
6379;DHT22;3222;48.858;10.128;2023-01-15T09:07:46;7.30;99.90
6379;DHT22;3222;48.858;10.128;2023-01-15T09:10:11;7.20;99.90
6379;DHT22;3222;48.858;10.128;2023-01-15T09:12:37;7.20;99.90
6379;DHT22;3222;48.858;10.128;2023-01-15T09:15:03;7.20;99.90
6379;DHT22;3222;48.858;10.128;2023-01-15T09:17:30;7.20;99.90
6379;DHT22;3222;48.858;10.128;2023-01-15T09:19:56;7.20;99.90
6379;DHT22;3222;48.858;10.128;2023-01-15T09:22:21;7.20;99.90
6379;DHT22;3222;48.858;10.128;2023-01-15T09:24:47;7.10;99.90
6379;DHT22;3222;48.858;10.128;2023-01-15T09:27:13;7.10;99.90
6379;DHT22;3222;48.858;10.128;2023-01-15T09:29:39;7.10;99.90
6379;DHT22;3222;48.858;10.128;2023-01-15T09:32:04;7.10;99.90
6379;DHT22;3222;48.858;10.128;2023-01-15T09:34:30;7.10;99.90
6379;DHT22;3222;48.858;10.128;2023-01-15T09:36:56;7.00;99.90
6379;DHT22;3222;48.858;10.128;2023-01-15T09:39:21;7.00;99.90
6379;DHT22;3222;48.858;10.128;2023-01-15T09:47:52;7.00;99.90
6379;DHT22;3222;48.858;10.128;2023-01-15T09:53:46;6.90;99.90
6379;DHT22;3222;48.858;10.128;2023-01-15T09:56:24;6.90;99.90
6379;DHT22;3222;48.858;10.128;2023-01-15T09:58:53;6.80;99.90
6379;DHT22;3222;48.858;10.128;2023-01-15T10:01:25;6.80;99.90
6379;DHT22;3222;48.858;10.128;2023-01-15T10:04:23;6.80;99.90
6379;DHT22;3222;48.858;10.128;2023-01-15T10:07:04;6.80;99.90
6379;DHT22;3222;48.858;10.128;2023-01-15T10:09:35;6.80;99.90
6379;DHT22;3222;48.858;10.128;2023-01-15T10:12:18;6.70;99.90
6379;DHT22;3222;48.858;10.128;2023-01-15T10:15:21;6.80;99.90
6379;DHT22;3222;48.858;10.128;2023-01-15T10:17:51;6.80;99.90
6379;DHT22;3222;48.858;10.128;2023-01-15T10:23:14;6.70;99.90
6379;DHT22;3222;48.858;10.128;2023-01-15T10:25:50;6.70;99.90
6379;DHT22;3222;48.858;10.128;2023-01-15T10:28:24;6.80;99.90
6379;DHT22;3222;48.858;10.128;2023-01-15T10:30:53;6.70;99.90
6379;DHT22;3222;48.858;10.128;2023-01-15T10:36:24;6.60;99.90
6379;DHT22;3222;48.858;10.128;2023-01-15T10:41:50;6.60;99.90
6379;DHT22;3222;48.858;10.128;2023-01-15T10:44:51;6.70;99.90
6379;DHT22;3222;48.858;10.128;2023-01-15T10:47:29;6.60;99.90
6379;DHT22;3222;48.858;10.128;2023-01-15T10:49:58;6.60;99.90
6379;DHT22;3222;48.858;10.128;2023-01-15T10:52:32;6.50;99.90
6379;DHT22;3222;48.858;10.128;2023-01-15T10:55:31;6.50;99.90
6379;DHT22;3222;48.858;10.128;2023-01-15T10:58:05;6.50;99.90
6379;DHT22;3222;48.858;10.128;2023-01-15T11:05:52;6.50;99.90
6379;DHT22;3222;48.858;10.128;2023-01-15T11:08:23;6.40;99.90
6379;DHT22;3222;48.858;10.128;2023-01-15T11:10:53;6.40;99.90
6379;DHT22;3222;48.858;10.128;2023-01-15T11:13:24;6.40;99.90
6379;DHT22;3222;48.858;10.128;2023-01-15T11:16:22;6.40;99.90
6379;DHT22;3222;48.858;10.128;2023-01-15T11:19:28;6.30;99.90
6379;DHT22;3222;48.858;10.128;2023-01-15T11:22:10;6.30;99.90
6379;DHT22;3222;48.858;10.128;2023-01-15T11:24:48;6.30;99.90
6379;DHT22;3222;48.858;10.128;2023-01-15T11:27:20;6.20;99.90
6379;DHT22;3222;48.858;10.128;2023-01-15T11:29:51;6.20;99.90
6379;DHT22;3222;48.858;10.128;2023-01-15T11:32:30;6.20;99.90
6379;DHT22;3222;48.858;10.128;2023-01-15T11:34:59;6.20;99.90
6379;DHT22;3222;48.858;10.128;2023-01-15T11:37:25;6.20;99.90
6379;DHT22;3222;48.858;10.128;2023-01-15T11:39:59;6.20;99.90
6379;DHT22;3222;48.858;10.128;2023-01-15T11:42:31;6.10;99.90
6379;DHT22;3222;48.858;10.128;2023-01-15T11:45:20;6.10;99.90
6379;DHT22;3222;48.858;10.128;2023-01-15T11:48:19;6.00;99.90
6379;DHT22;3222;48.858;10.128;2023-01-15T11:51:14;6.00;99.90
6379;DHT22;3222;48.858;10.128;2023-01-15T11:53:47;6.00;99.90
6379;DHT22;3222;48.858;10.128;2023-01-15T11:56:27;6.00;99.90
6379;DHT22;3222;48.858;10.128;2023-01-15T11:58:56;6.00;99.90
6379;DHT22;3222;48.858;10.128;2023-01-15T12:01:29;5.90;99.90
6379;DHT22;3222;48.858;10.128;2023-01-15T12:03:57;5.90;99.90
6379;DHT22;3222;48.858;10.128;2023-01-15T12:06:25;5.80;99.90
6379;DHT22;3222;48.858;10.128;2023-01-15T12:17:27;5.80;99.90
6379;DHT22;3222;48.858;10.128;2023-01-15T12:20:21;5.70;99.90
6379;DHT22;3222;48.858;10.128;2023-01-15T12:25:41;5.70;99.90
6379;DHT22;3222;48.858;10.128;2023-01-15T12:31:21;5.60;99.90
6379;DHT22;3222;48.858;10.128;2023-01-15T12:34:07;5.70;99.90
6379;DHT22;3222;48.858;10.128;2023-01-15T12:37:01;5.60;99.90
6379;DHT22;3222;48.858;10.128;2023-01-15T12:39:40;5.60;99.90
6379;DHT22;3222;48.858;10.128;2023-01-15T12:42:10;5.50;99.90
6379;DHT22;3222;48.858;10.128;2023-01-15T12:45:02;5.50;99.90
6379;DHT22;3222;48.858;10.128;2023-01-15T12:58:43;5.40;99.90
6379;DHT22;3222;48.858;10.128;2023-01-15T13:04:15;5.30;99.90
6379;DHT22;3222;48.858;10.128;2023-01-15T13:06:49;5.40;99.90
6379;DHT22;3222;48.858;10.128;2023-01-15T13:11:51;5.40;99.90
6379;DHT22;3222;48.858;10.128;2023-01-15T13:14:17;5.30;99.90
6379;DHT22;3222;48.858;10.128;2023-01-15T13:16:52;5.30;99.90
6379;DHT22;3222;48.858;10.128;2023-01-15T13:19:28;5.30;99.90
6379;DHT22;3222;48.858;10.128;2023-01-15T13:22:00;5.20;99.90
6379;DHT22;3222;48.858;10.128;2023-01-15T13:30:28;5.20;99.90
6379;DHT22;3222;48.858;10.128;2023-01-15T13:33:16;5.10;99.90
6379;DHT22;3222;48.858;10.128;2023-01-15T13:35:50;5.00;99.90
6379;DHT22;3222;48.858;10.128;2023-01-15T13:38:24;5.00;99.90
6379;DHT22;3222;48.858;10.128;2023-01-15T13:40:52;5.10;99.90
6379;DHT22;3222;48.858;10.128;2023-01-15T13:43:39;5.00;99.90
6379;DHT22;3222;48.858;10.128;2023-01-15T13:46:11;5.00;99.90
6379;DHT22;3222;48.858;10.128;2023-01-15T13:49:04;5.10;99.90
6379;DHT22;3222;48.858;10.128;2023-01-15T13:51:33;5.00;99.90
6379;DHT22;3222;48.858;10.128;2023-01-15T13:54:12;5.00;99.90
6379;DHT22;3222;48.858;10.128;2023-01-15T13:56:40;5.00;99.90
6379;DHT22;3222;48.858;10.128;2023-01-15T13:59:42;4.90;99.90
6379;DHT22;3222;48.858;10.128;2023-01-15T14:02:30;4.90;99.90
6379;DHT22;3222;48.858;10.128;2023-01-15T14:04:56;4.90;99.90
6379;DHT22;3222;48.858;10.128;2023-01-15T14:10:23;4.80;99.90
6379;DHT22;3222;48.858;10.128;2023-01-15T14:21:26;4.80;99.90
6379;DHT22;3222;48.858;10.128;2023-01-15T14:24:07;4.80;99.90
6379;DHT22;3222;48.858;10.128;2023-01-15T14:32:34;4.80;99.90
6379;DHT22;3222;48.858;10.128;2023-01-15T14:35:11;4.80;99.90
6379;DHT22;3222;48.858;10.128;2023-01-15T14:37:49;4.80;99.90
6379;DHT22;3222;48.858;10.128;2023-01-15T14:40:22;4.80;99.90
6379;DHT22;3222;48.858;10.128;2023-01-15T14:42:51;4.80;99.90
6379;DHT22;3222;48.858;10.128;2023-01-15T14:48:00;4.80;99.90
6379;DHT22;3222;48.858;10.128;2023-01-15T14:50:27;4.70;99.90
6379;DHT22;3222;48.858;10.128;2023-01-15T14:53:01;4.70;99.90
6379;DHT22;3222;48.858;10.128;2023-01-15T14:55:28;4.60;99.90
6379;DHT22;3222;48.858;10.128;2023-01-15T14:58:01;4.60;99.90
6379;DHT22;3222;48.858;10.128;2023-01-15T15:00:37;4.70;99.90
6379;DHT22;3222;48.858;10.128;2023-01-15T15:03:34;4.70;99.90
6379;DHT22;3222;48.858;10.128;2023-01-15T15:06:01;4.70;99.90
6379;DHT22;3222;48.858;10.128;2023-01-15T15:08:30;4.70;99.90
6379;DHT22;3222;48.858;10.128;2023-01-15T15:10:58;4.70;99.90
6379;DHT22;3222;48.858;10.128;2023-01-15T15:13:34;4.70;99.90
6379;DHT22;3222;48.858;10.128;2023-01-15T15:18:35;4.70;99.90
6379;DHT22;3222;48.858;10.128;2023-01-15T15:21:19;4.70;99.90
6379;DHT22;3222;48.858;10.128;2023-01-15T15:26:28;4.70;99.90
6379;DHT22;3222;48.858;10.128;2023-01-15T15:29:01;4.70;99.90
6379;DHT22;3222;48.858;10.128;2023-01-15T15:31:31;4.70;99.90
6379;DHT22;3222;48.858;10.128;2023-01-15T15:33:57;4.60;99.90
6379;DHT22;3222;48.858;10.128;2023-01-15T15:36:26;4.60;99.90
6379;DHT22;3222;48.858;10.128;2023-01-15T15:38:53;4.60;99.90
6379;DHT22;3222;48.858;10.128;2023-01-15T15:41:21;4.70;99.90
6379;DHT22;3222;48.858;10.128;2023-01-15T15:44:22;4.60;99.90
6379;DHT22;3222;48.858;10.128;2023-01-15T15:47:23;4.60;99.90
6379;DHT22;3222;48.858;10.128;2023-01-15T15:50:27;4.60;99.90
6379;DHT22;3222;48.858;10.128;2023-01-15T15:52:54;4.60;99.90
6379;DHT22;3222;48.858;10.128;2023-01-15T15:55:22;4.70;99.90
6379;DHT22;3222;48.858;10.128;2023-01-15T15:57:54;4.60;99.90
6379;DHT22;3222;48.858;10.128;2023-01-15T16:00:33;4.60;99.90
6379;DHT22;3222;48.858;10.128;2023-01-15T16:03:04;4.60;99.90
6379;DHT22;3222;48.858;10.128;2023-01-15T16:05:30;4.60;99.90
6379;DHT22;3222;48.858;10.128;2023-01-15T16:08:18;4.60;99.90
6379;DHT22;3222;48.858;10.128;2023-01-15T16:10:48;4.60;99.90
6379;DHT22;3222;48.858;10.128;2023-01-15T16:13:37;4.50;99.90
6379;DHT22;3222;48.858;10.128;2023-01-15T16:16:05;4.50;99.90
6379;DHT22;3222;48.858;10.128;2023-01-15T16:18:38;4.60;99.90
6379;DHT22;3222;48.858;10.128;2023-01-15T16:21:08;4.50;99.90
6379;DHT22;3222;48.858;10.128;2023-01-15T16:23:35;4.50;99.90
6379;DHT22;3222;48.858;10.128;2023-01-15T16:28:56;4.50;99.90
6379;DHT22;3222;48.858;10.128;2023-01-15T16:31:21;4.50;99.90
6379;DHT22;3222;48.858;10.128;2023-01-15T16:33:55;4.40;99.90
6379;DHT22;3222;48.858;10.128;2023-01-15T16:36:23;4.40;99.90
6379;DHT22;3222;48.858;10.128;2023-01-15T16:38:50;4.30;99.90
6379;DHT22;3222;48.858;10.128;2023-01-15T16:41:23;4.30;99.90
6379;DHT22;3222;48.858;10.128;2023-01-15T16:43:56;4.30;99.90
6379;DHT22;3222;48.858;10.128;2023-01-15T16:46:24;4.30;99.90
6379;DHT22;3222;48.858;10.128;2023-01-15T16:51:42;4.30;99.90
6379;DHT22;3222;48.858;10.128;2023-01-15T16:56:54;4.30;99.90
6379;DHT22;3222;48.858;10.128;2023-01-15T17:12:38;4.20;99.90
6379;DHT22;3222;48.858;10.128;2023-01-15T17:17:39;4.20;99.90
6379;DHT22;3222;48.858;10.128;2023-01-15T17:20:05;4.20;99.90
6379;DHT22;3222;48.858;10.128;2023-01-15T17:22:33;4.20;99.90
6379;DHT22;3222;48.858;10.128;2023-01-15T17:25:00;4.20;99.90
6379;DHT22;3222;48.858;10.128;2023-01-15T17:27:27;4.20;99.90
6379;DHT22;3222;48.858;10.128;2023-01-15T17:29:54;4.20;99.90
6379;DHT22;3222;48.858;10.128;2023-01-15T17:34:50;4.10;99.90
6379;DHT22;3222;48.858;10.128;2023-01-15T17:37:16;4.10;99.90
6379;DHT22;3222;48.858;10.128;2023-01-15T17:39:42;4.00;99.90
6379;DHT22;3222;48.858;10.128;2023-01-15T17:42:15;4.10;99.90
6379;DHT22;3222;48.858;10.128;2023-01-15T17:44:42;4.00;99.90
6379;DHT22;3222;48.858;10.128;2023-01-15T17:47:08;4.10;99.90
6379;DHT22;3222;48.858;10.128;2023-01-15T17:49:34;4.00;99.90
6379;DHT22;3222;48.858;10.128;2023-01-15T17:52:01;4.00;99.90
6379;DHT22;3222;48.858;10.128;2023-01-15T17:54:28;4.00;99.90
6379;DHT22;3222;48.858;10.128;2023-01-15T17:57:14;4.00;99.90
6379;DHT22;3222;48.858;10.128;2023-01-15T17:59:59;4.10;99.90
6379;DHT22;3222;48.858;10.128;2023-01-15T18:02:43;4.10;99.90
6379;DHT22;3222;48.858;10.128;2023-01-15T18:05:29;4.00;99.90
6379;DHT22;3222;48.858;10.128;2023-01-15T18:08:02;4.00;99.90
6379;DHT22;3222;48.858;10.128;2023-01-15T18:10:28;4.00;99.90
6379;DHT22;3222;48.858;10.128;2023-01-15T18:12:54;4.00;99.90
6379;DHT22;3222;48.858;10.128;2023-01-15T18:15:20;4.00;99.90
6379;DHT22;3222;48.858;10.128;2023-01-15T18:17:45;3.90;99.90
6379;DHT22;3222;48.858;10.128;2023-01-15T18:20:12;3.90;99.90
6379;DHT22;3222;48.858;10.128;2023-01-15T18:22:37;3.90;99.90
6379;DHT22;3222;48.858;10.128;2023-01-15T18:25:04;3.90;99.90
6379;DHT22;3222;48.858;10.128;2023-01-15T18:27:29;3.90;99.90
6379;DHT22;3222;48.858;10.128;2023-01-15T18:29:56;3.80;99.90
6379;DHT22;3222;48.858;10.128;2023-01-15T18:32:22;3.80;99.90
6379;DHT22;3222;48.858;10.128;2023-01-15T18:34:47;3.90;99.90
6379;DHT22;3222;48.858;10.128;2023-01-15T18:37:13;3.90;99.90
6379;DHT22;3222;48.858;10.128;2023-01-15T18:39:39;3.80;99.90
6379;DHT22;3222;48.858;10.128;2023-01-15T18:42:05;3.90;99.90